sensor_id;sensor_type;location;lat;lon;timestamp;P1;durP1;ratioP1;P2;durP2;ratioP2
25009;SDS011;13026;49.486;10.926;2022-07-11T00:00:28;4.93;;;1.23;;
25009;SDS011;13026;49.486;10.926;2022-07-11T00:02:54;2.92;;;1.08;;
25009;SDS011;13026;49.486;10.926;2022-07-11T00:05:19;2.40;;;1.10;;
25009;SDS011;13026;49.486;10.926;2022-07-11T00:07:45;5.28;;;1.20;;
25009;SDS011;13026;49.486;10.926;2022-07-11T00:10:10;4.78;;;1.13;;
25009;SDS011;13026;49.486;10.926;2022-07-11T00:12:37;5.45;;;1.20;;
25009;SDS011;13026;49.486;10.926;2022-07-11T00:15:03;2.92;;;1.25;;
25009;SDS011;13026;49.486;10.926;2022-07-11T00:17:28;4.15;;;1.02;;
25009;SDS011;13026;49.486;10.926;2022-07-11T00:19:54;2.72;;;1.02;;
25009;SDS011;13026;49.486;10.926;2022-07-11T00:22:19;3.83;;;1.30;;
25009;SDS011;13026;49.486;10.926;2022-07-11T00:24:45;5.80;;;1.33;;
25009;SDS011;13026;49.486;10.926;2022-07-11T00:27:10;4.20;;;0.95;;
25009;SDS011;13026;49.486;10.926;2022-07-11T00:29:36;6.88;;;1.50;;
25009;SDS011;13026;49.486;10.926;2022-07-11T00:32:02;5.05;;;1.73;;
25009;SDS011;13026;49.486;10.926;2022-07-11T00:34:28;2.42;;;1.05;;
25009;SDS011;13026;49.486;10.926;2022-07-11T00:36:53;5.47;;;1.25;;
25009;SDS011;13026;49.486;10.926;2022-07-11T00:39:19;2.67;;;1.08;;
25009;SDS011;13026;49.486;10.926;2022-07-11T00:41:44;5.20;;;1.20;;
25009;SDS011;13026;49.486;10.926;2022-07-11T00:44:10;3.35;;;1.15;;
25009;SDS011;13026;49.486;10.926;2022-07-11T00:46:37;5.57;;;1.15;;
25009;SDS011;13026;49.486;10.926;2022-07-11T00:49:03;4.72;;;1.08;;
25009;SDS011;13026;49.486;10.926;2022-07-11T00:51:28;3.30;;;0.90;;
25009;SDS011;13026;49.486;10.926;2022-07-11T00:53:56;2.50;;;1.30;;
25009;SDS011;13026;49.486;10.926;2022-07-11T00:56:24;3.10;;;1.00;;
25009;SDS011;13026;49.486;10.926;2022-07-11T00:58:54;1.25;;;0.90;;
25009;SDS011;13026;49.486;10.926;2022-07-11T01:01:21;5.03;;;1.60;;
25009;SDS011;13026;49.486;10.926;2022-07-11T01:03:47;4.43;;;1.30;;
25009;SDS011;13026;49.486;10.926;2022-07-11T01:06:12;5.57;;;1.20;;
25009;SDS011;13026;49.486;10.926;2022-07-11T01:08:38;3.33;;;1.50;;
25009;SDS011;13026;49.486;10.926;2022-07-11T01:11:05;6.82;;;1.70;;
25009;SDS011;13026;49.486;10.926;2022-07-11T01:13:33;2.65;;;1.35;;
25009;SDS011;13026;49.486;10.926;2022-07-11T01:18:50;3.75;;;1.40;;
25009;SDS011;13026;49.486;10.926;2022-07-11T01:21:28;4.50;;;1.30;;
25009;SDS011;13026;49.486;10.926;2022-07-11T01:23:56;3.78;;;1.45;;
25009;SDS011;13026;49.486;10.926;2022-07-11T01:26:24;4.50;;;1.60;;
25009;SDS011;13026;49.486;10.926;2022-07-11T01:28:50;3.15;;;1.63;;
25009;SDS011;13026;49.486;10.926;2022-07-11T01:31:16;3.67;;;1.55;;
25009;SDS011;13026;49.486;10.926;2022-07-11T01:33:42;4.03;;;1.80;;
25009;SDS011;13026;49.486;10.926;2022-07-11T01:36:08;3.40;;;1.33;;
25009;SDS011;13026;49.486;10.926;2022-07-11T01:38:34;7.22;;;1.45;;
25009;SDS011;13026;49.486;10.926;2022-07-11T01:40:59;3.45;;;1.80;;
25009;SDS011;13026;49.486;10.926;2022-07-11T01:43:26;4.10;;;1.58;;
25009;SDS011;13026;49.486;10.926;2022-07-11T01:45:52;3.22;;;1.50;;
25009;SDS011;13026;49.486;10.926;2022-07-11T01:48:18;3.75;;;1.15;;
25009;SDS011;13026;49.486;10.926;2022-07-11T01:50:44;2.28;;;1.65;;
25009;SDS011;13026;49.486;10.926;2022-07-11T01:53:10;5.28;;;1.80;;
25009;SDS011;13026;49.486;10.926;2022-07-11T01:55:36;1.98;;;1.27;;
25009;SDS011;13026;49.486;10.926;2022-07-11T01:58:01;1.88;;;1.25;;
25009;SDS011;13026;49.486;10.926;2022-07-11T02:00:27;1.20;;;0.98;;
25009;SDS011;13026;49.486;10.926;2022-07-11T02:02:52;2.25;;;1.13;;
25009;SDS011;13026;49.486;10.926;2022-07-11T02:05:18;1.58;;;1.20;;
25009;SDS011;13026;49.486;10.926;2022-07-11T02:07:44;2.08;;;1.08;;
25009;SDS011;13026;49.486;10.926;2022-07-11T02:10:09;2.08;;;1.00;;
25009;SDS011;13026;49.486;10.926;2022-07-11T02:12:35;3.20;;;1.02;;
25009;SDS011;13026;49.486;10.926;2022-07-11T02:15:00;2.45;;;1.27;;
25009;SDS011;13026;49.486;10.926;2022-07-11T02:17:26;2.63;;;1.08;;
25009;SDS011;13026;49.486;10.926;2022-07-11T02:19:51;2.80;;;1.10;;
25009;SDS011;13026;49.486;10.926;2022-07-11T02:22:17;1.95;;;1.13;;
25009;SDS011;13026;49.486;10.926;2022-07-11T02:24:42;4.32;;;1.30;;
25009;SDS011;13026;49.486;10.926;2022-07-11T02:27:08;4.13;;;1.35;;
25009;SDS011;13026;49.486;10.926;2022-07-11T02:29:33;4.13;;;1.23;;
25009;SDS011;13026;49.486;10.926;2022-07-11T02:31:59;5.78;;;2.20;;
25009;SDS011;13026;49.486;10.926;2022-07-11T02:34:24;3.13;;;1.75;;
25009;SDS011;13026;49.486;10.926;2022-07-11T02:36:50;2.50;;;1.40;;
25009;SDS011;13026;49.486;10.926;2022-07-11T02:39:15;4.20;;;1.40;;
25009;SDS011;13026;49.486;10.926;2022-07-11T02:41:41;8.45;;;1.50;;
25009;SDS011;13026;49.486;10.926;2022-07-11T02:44:06;2.80;;;1.30;;
25009;SDS011;13026;49.486;10.926;2022-07-11T02:46:33;2.78;;;1.38;;
25009;SDS011;13026;49.486;10.926;2022-07-11T02:48:59;5.03;;;1.20;;
25009;SDS011;13026;49.486;10.926;2022-07-11T02:51:24;3.38;;;1.60;;
25009;SDS011;13026;49.486;10.926;2022-07-11T02:53:50;4.28;;;1.80;;
25009;SDS011;13026;49.486;10.926;2022-07-11T02:56:15;3.83;;;1.70;;
25009;SDS011;13026;49.486;10.926;2022-07-11T02:58:41;4.53;;;1.60;;
25009;SDS011;13026;49.486;10.926;2022-07-11T03:01:06;3.38;;;1.77;;
25009;SDS011;13026;49.486;10.926;2022-07-11T03:03:32;4.60;;;1.50;;
25009;SDS011;13026;49.486;10.926;2022-07-11T03:05:57;4.50;;;1.50;;
25009;SDS011;13026;49.486;10.926;2022-07-11T03:08:23;3.72;;;1.50;;
25009;SDS011;13026;49.486;10.926;2022-07-11T03:10:48;2.92;;;1.65;;
25009;SDS011;13026;49.486;10.926;2022-07-11T03:13:14;4.85;;;1.70;;
25009;SDS011;13026;49.486;10.926;2022-07-11T03:15:39;3.03;;;1.90;;
25009;SDS011;13026;49.486;10.926;2022-07-11T03:18:05;5.22;;;1.98;;
25009;SDS011;13026;49.486;10.926;2022-07-11T03:20:31;3.13;;;1.33;;
25009;SDS011;13026;49.486;10.926;2022-07-11T03:22:56;4.75;;;1.73;;
25009;SDS011;13026;49.486;10.926;2022-07-11T03:25:22;4.80;;;1.83;;
25009;SDS011;13026;49.486;10.926;2022-07-11T03:27:47;8.63;;;2.13;;
25009;SDS011;13026;49.486;10.926;2022-07-11T03:30:13;3.00;;;1.70;;
25009;SDS011;13026;49.486;10.926;2022-07-11T03:32:38;2.50;;;1.38;;
25009;SDS011;13026;49.486;10.926;2022-07-11T03:35:04;7.55;;;1.80;;
25009;SDS011;13026;49.486;10.926;2022-07-11T03:37:30;2.45;;;1.63;;
25009;SDS011;13026;49.486;10.926;2022-07-11T03:39:56;6.25;;;1.45;;
25009;SDS011;13026;49.486;10.926;2022-07-11T03:42:21;3.28;;;1.25;;
25009;SDS011;13026;49.486;10.926;2022-07-11T03:44:47;4.55;;;2.20;;
25009;SDS011;13026;49.486;10.926;2022-07-11T03:47:12;4.78;;;1.77;;
25009;SDS011;13026;49.486;10.926;2022-07-11T03:49:38;5.55;;;1.73;;
25009;SDS011;13026;49.486;10.926;2022-07-11T03:52:03;3.70;;;1.42;;
25009;SDS011;13026;49.486;10.926;2022-07-11T03:54:29;11.63;;;3.17;;
25009;SDS011;13026;49.486;10.926;2022-07-11T03:56:55;17.80;;;7.15;;
25009;SDS011;13026;49.486;10.926;2022-07-11T03:59:20;4.32;;;2.33;;
25009;SDS011;13026;49.486;10.926;2022-07-11T04:01:46;3.42;;;1.98;;
25009;SDS011;13026;49.486;10.926;2022-07-11T04:04:11;5.63;;;2.03;;
25009;SDS011;13026;49.486;10.926;2022-07-11T04:06:37;4.05;;;1.50;;
25009;SDS011;13026;49.486;10.926;2022-07-11T04:09:02;2.63;;;1.55;;
25009;SDS011;13026;49.486;10.926;2022-07-11T04:11:28;5.32;;;1.60;;
25009;SDS011;13026;49.486;10.926;2022-07-11T04:13:54;3.75;;;1.50;;
25009;SDS011;13026;49.486;10.926;2022-07-11T04:16:19;4.60;;;1.83;;
25009;SDS011;13026;49.486;10.926;2022-07-11T04:18:44;2.85;;;1.67;;
25009;SDS011;13026;49.486;10.926;2022-07-11T04:21:10;4.45;;;1.48;;
25009;SDS011;13026;49.486;10.926;2022-07-11T04:23:36;3.70;;;1.80;;
25009;SDS011;13026;49.486;10.926;2022-07-11T04:26:01;3.22;;;1.88;;
25009;SDS011;13026;49.486;10.926;2022-07-11T04:28:27;4.25;;;1.50;;
25009;SDS011;13026;49.486;10.926;2022-07-11T04:30:52;2.38;;;1.50;;
25009;SDS011;13026;49.486;10.926;2022-07-11T04:33:18;4.43;;;1.80;;
25009;SDS011;13026;49.486;10.926;2022-07-11T04:35:43;3.75;;;1.90;;
25009;SDS011;13026;49.486;10.926;2022-07-11T04:38:09;2.58;;;2.17;;
25009;SDS011;13026;49.486;10.926;2022-07-11T04:40:34;3.50;;;2.30;;
25009;SDS011;13026;49.486;10.926;2022-07-11T04:43:00;2.80;;;1.60;;
25009;SDS011;13026;49.486;10.926;2022-07-11T04:45:25;2.78;;;1.58;;
25009;SDS011;13026;49.486;10.926;2022-07-11T04:47:51;3.15;;;1.65;;
25009;SDS011;13026;49.486;10.926;2022-07-11T04:50:16;7.63;;;1.95;;
25009;SDS011;13026;49.486;10.926;2022-07-11T04:52:42;3.22;;;2.13;;
25009;SDS011;13026;49.486;10.926;2022-07-11T04:55:07;2.40;;;1.98;;
25009;SDS011;13026;49.486;10.926;2022-07-11T04:57:33;3.53;;;1.80;;
25009;SDS011;13026;49.486;10.926;2022-07-11T04:59:59;3.88;;;2.30;;
25009;SDS011;13026;49.486;10.926;2022-07-11T05:02:24;2.58;;;1.70;;
25009;SDS011;13026;49.486;10.926;2022-07-11T05:04:50;2.17;;;1.98;;
25009;SDS011;13026;49.486;10.926;2022-07-11T05:07:15;2.65;;;1.92;;
25009;SDS011;13026;49.486;10.926;2022-07-11T05:09:41;2.22;;;1.67;;
25009;SDS011;13026;49.486;10.926;2022-07-11T05:12:07;2.35;;;1.90;;
25009;SDS011;13026;49.486;10.926;2022-07-11T05:14:33;2.47;;;1.73;;
25009;SDS011;13026;49.486;10.926;2022-07-11T05:16:58;2.22;;;1.60;;
25009;SDS011;13026;49.486;10.926;2022-07-11T05:19:24;1.85;;;1.55;;
25009;SDS011;13026;49.486;10.926;2022-07-11T05:21:49;2.35;;;2.15;;
25009;SDS011;13026;49.486;10.926;2022-07-11T05:24:15;4.50;;;1.67;;
25009;SDS011;13026;49.486;10.926;2022-07-11T05:26:40;2.53;;;1.90;;
25009;SDS011;13026;49.486;10.926;2022-07-11T05:29:06;3.10;;;1.90;;
25009;SDS011;13026;49.486;10.926;2022-07-11T05:31:31;2.97;;;1.83;;
25009;SDS011;13026;49.486;10.926;2022-07-11T05:33:57;4.28;;;1.73;;
25009;SDS011;13026;49.486;10.926;2022-07-11T05:36:22;2.50;;;1.63;;
25009;SDS011;13026;49.486;10.926;2022-07-11T05:38:48;3.35;;;1.92;;
25009;SDS011;13026;49.486;10.926;2022-07-11T05:41:13;3.17;;;1.77;;
25009;SDS011;13026;49.486;10.926;2022-07-11T05:43:39;2.10;;;2.00;;
25009;SDS011;13026;49.486;10.926;2022-07-11T05:46:04;2.17;;;1.98;;
25009;SDS011;13026;49.486;10.926;2022-07-11T05:48:30;2.30;;;2.10;;
25009;SDS011;13026;49.486;10.926;2022-07-11T05:50:56;3.78;;;2.03;;
25009;SDS011;13026;49.486;10.926;2022-07-11T05:53:21;2.28;;;1.80;;
25009;SDS011;13026;49.486;10.926;2022-07-11T05:55:47;2.55;;;1.98;;
25009;SDS011;13026;49.486;10.926;2022-07-11T05:58:12;2.00;;;1.90;;
25009;SDS011;13026;49.486;10.926;2022-07-11T06:00:38;2.63;;;2.13;;
25009;SDS011;13026;49.486;10.926;2022-07-11T06:03:03;1.80;;;1.70;;
25009;SDS011;13026;49.486;10.926;2022-07-11T06:05:29;1.80;;;1.70;;
25009;SDS011;13026;49.486;10.926;2022-07-11T06:07:54;1.85;;;1.75;;
25009;SDS011;13026;49.486;10.926;2022-07-11T06:10:21;2.22;;;1.50;;
25009;SDS011;13026;49.486;10.926;2022-07-11T06:12:47;2.42;;;1.80;;
25009;SDS011;13026;49.486;10.926;2022-07-11T06:15:12;1.80;;;1.70;;
25009;SDS011;13026;49.486;10.926;2022-07-11T06:17:38;3.28;;;1.70;;
25009;SDS011;13026;49.486;10.926;2022-07-11T06:20:03;1.70;;;1.60;;
25009;SDS011;13026;49.486;10.926;2022-07-11T06:22:29;1.83;;;1.67;;
25009;SDS011;13026;49.486;10.926;2022-07-11T06:24:55;1.98;;;1.75;;
25009;SDS011;13026;49.486;10.926;2022-07-11T06:27:20;1.92;;;1.77;;
25009;SDS011;13026;49.486;10.926;2022-07-11T06:29:46;1.90;;;1.80;;
25009;SDS011;13026;49.486;10.926;2022-07-11T06:32:11;2.10;;;1.92;;
25009;SDS011;13026;49.486;10.926;2022-07-11T06:34:37;2.35;;;2.08;;
25009;SDS011;13026;49.486;10.926;2022-07-11T06:37:03;2.13;;;2.00;;
25009;SDS011;13026;49.486;10.926;2022-07-11T06:39:29;2.85;;;1.80;;
25009;SDS011;13026;49.486;10.926;2022-07-11T06:41:55;3.65;;;1.73;;
25009;SDS011;13026;49.486;10.926;2022-07-11T06:44:20;1.70;;;1.60;;
25009;SDS011;13026;49.486;10.926;2022-07-11T06:46:46;1.60;;;1.48;;
25009;SDS011;13026;49.486;10.926;2022-07-11T06:49:11;2.25;;;1.83;;
25009;SDS011;13026;49.486;10.926;2022-07-11T06:51:37;1.70;;;1.60;;
25009;SDS011;13026;49.486;10.926;2022-07-11T06:54:02;1.75;;;1.60;;
25009;SDS011;13026;49.486;10.926;2022-07-11T06:56:28;3.08;;;2.10;;
25009;SDS011;13026;49.486;10.926;2022-07-11T06:58:53;1.83;;;1.73;;
25009;SDS011;13026;49.486;10.926;2022-07-11T07:01:20;1.63;;;1.52;;
25009;SDS011;13026;49.486;10.926;2022-07-11T07:03:46;3.00;;;2.00;;
25009;SDS011;13026;49.486;10.926;2022-07-11T07:06:11;2.22;;;1.98;;
25009;SDS011;13026;49.486;10.926;2022-07-11T07:08:38;1.30;;;1.23;;
25009;SDS011;13026;49.486;10.926;2022-07-11T07:11:04;1.40;;;1.30;;
25009;SDS011;13026;49.486;10.926;2022-07-11T07:13:29;1.52;;;1.35;;
25009;SDS011;13026;49.486;10.926;2022-07-11T07:15:56;1.30;;;1.17;;
25009;SDS011;13026;49.486;10.926;2022-07-11T07:18:22;1.40;;;1.30;;
25009;SDS011;13026;49.486;10.926;2022-07-11T07:20:47;1.42;;;1.27;;
25009;SDS011;13026;49.486;10.926;2022-07-11T07:23:13;1.20;;;1.15;;
25009;SDS011;13026;49.486;10.926;2022-07-11T07:25:39;1.40;;;1.30;;
25009;SDS011;13026;49.486;10.926;2022-07-11T07:28:04;0.90;;;0.90;;
25009;SDS011;13026;49.486;10.926;2022-07-11T07:30:30;2.97;;;1.10;;
25009;SDS011;13026;49.486;10.926;2022-07-11T07:32:57;0.93;;;0.93;;
25009;SDS011;13026;49.486;10.926;2022-07-11T07:35:22;0.90;;;0.90;;
25009;SDS011;13026;49.486;10.926;2022-07-11T07:37:48;1.15;;;1.02;;
25009;SDS011;13026;49.486;10.926;2022-07-11T07:40:13;1.05;;;1.05;;
25009;SDS011;13026;49.486;10.926;2022-07-11T07:42:39;2.60;;;1.20;;
25009;SDS011;13026;49.486;10.926;2022-07-11T07:45:04;2.13;;;1.20;;
25009;SDS011;13026;49.486;10.926;2022-07-11T07:47:30;1.35;;;1.25;;
25009;SDS011;13026;49.486;10.926;2022-07-11T07:49:56;2.25;;;0.98;;
25009;SDS011;13026;49.486;10.926;2022-07-11T07:52:21;1.08;;;1.02;;
25009;SDS011;13026;49.486;10.926;2022-07-11T07:54:47;1.35;;;1.25;;
25009;SDS011;13026;49.486;10.926;2022-07-11T07:57:12;1.50;;;1.00;;
25009;SDS011;13026;49.486;10.926;2022-07-11T07:59:38;2.35;;;1.17;;
25009;SDS011;13026;49.486;10.926;2022-07-11T08:02:04;0.95;;;0.90;;
25009;SDS011;13026;49.486;10.926;2022-07-11T08:04:29;1.55;;;1.00;;
25009;SDS011;13026;49.486;10.926;2022-07-11T08:06:55;2.05;;;1.00;;
25009;SDS011;13026;49.486;10.926;2022-07-11T08:09:20;1.13;;;1.00;;
25009;SDS011;13026;49.486;10.926;2022-07-11T08:11:46;0.90;;;0.90;;
25009;SDS011;13026;49.486;10.926;2022-07-11T08:14:11;0.70;;;0.70;;
25009;SDS011;13026;49.486;10.926;2022-07-11T08:16:37;0.80;;;0.80;;
25009;SDS011;13026;49.486;10.926;2022-07-11T08:19:03;4.30;;;1.10;;
25009;SDS011;13026;49.486;10.926;2022-07-11T08:21:30;3.40;;;0.88;;
25009;SDS011;13026;49.486;10.926;2022-07-11T08:23:56;2.38;;;0.75;;
25009;SDS011;13026;49.486;10.926;2022-07-11T08:26:22;0.70;;;0.70;;
25009;SDS011;13026;49.486;10.926;2022-07-11T08:28:49;1.30;;;1.20;;
25009;SDS011;13026;49.486;10.926;2022-07-11T08:31:15;1.20;;;1.13;;
25009;SDS011;13026;49.486;10.926;2022-07-11T08:33:40;3.50;;;0.95;;
25009;SDS011;13026;49.486;10.926;2022-07-11T08:36:06;0.90;;;0.90;;
25009;SDS011;13026;49.486;10.926;2022-07-11T08:38:32;3.00;;;1.00;;
25009;SDS011;13026;49.486;10.926;2022-07-11T08:40:58;0.98;;;0.98;;
25009;SDS011;13026;49.486;10.926;2022-07-11T08:43:27;1.00;;;1.00;;
25009;SDS011;13026;49.486;10.926;2022-07-11T08:45:54;1.25;;;1.15;;
25009;SDS011;13026;49.486;10.926;2022-07-11T08:48:19;1.48;;;1.13;;
25009;SDS011;13026;49.486;10.926;2022-07-11T08:50:46;1.67;;;1.08;;
25009;SDS011;13026;49.486;10.926;2022-07-11T08:53:11;0.82;;;0.82;;
25009;SDS011;13026;49.486;10.926;2022-07-11T08:55:38;2.30;;;0.90;;
25009;SDS011;13026;49.486;10.926;2022-07-11T08:58:05;1.45;;;1.25;;
25009;SDS011;13026;49.486;10.926;2022-07-11T09:00:32;0.80;;;0.80;;
25009;SDS011;13026;49.486;10.926;2022-07-11T09:02:58;1.48;;;0.80;;
25009;SDS011;13026;49.486;10.926;2022-07-11T09:05:25;6.47;;;1.00;;
25009;SDS011;13026;49.486;10.926;2022-07-11T09:07:52;1.15;;;1.02;;
25009;SDS011;13026;49.486;10.926;2022-07-11T09:10:18;1.00;;;1.00;;
25009;SDS011;13026;49.486;10.926;2022-07-11T09:18:01;1.40;;;1.30;;
25009;SDS011;13026;49.486;10.926;2022-07-11T09:20:29;1.02;;;1.02;;
25009;SDS011;13026;49.486;10.926;2022-07-11T09:23:19;1.23;;;1.10;;
25009;SDS011;13026;49.486;10.926;2022-07-11T09:25:45;1.98;;;1.00;;
25009;SDS011;13026;49.486;10.926;2022-07-11T09:28:10;0.88;;;0.88;;
25009;SDS011;13026;49.486;10.926;2022-07-11T09:30:37;1.42;;;1.20;;
25009;SDS011;13026;49.486;10.926;2022-07-11T09:33:04;0.98;;;0.98;;
25009;SDS011;13026;49.486;10.926;2022-07-11T09:35:32;2.47;;;1.10;;
25009;SDS011;13026;49.486;10.926;2022-07-11T09:38:04;2.92;;;1.15;;
25009;SDS011;13026;49.486;10.926;2022-07-11T09:40:32;1.25;;;1.15;;
25009;SDS011;13026;49.486;10.926;2022-07-11T09:42:59;2.80;;;1.23;;
25009;SDS011;13026;49.486;10.926;2022-07-11T09:45:26;1.45;;;1.35;;
25009;SDS011;13026;49.486;10.926;2022-07-11T09:48:00;1.50;;;1.40;;
25009;SDS011;13026;49.486;10.926;2022-07-11T09:50:32;1.48;;;1.38;;
25009;SDS011;13026;49.486;10.926;2022-07-11T09:55:24;1.80;;;1.30;;
25009;SDS011;13026;49.486;10.926;2022-07-11T09:57:51;1.20;;;1.20;;
25009;SDS011;13026;49.486;10.926;2022-07-11T10:00:17;1.60;;;1.50;;
25009;SDS011;13026;49.486;10.926;2022-07-11T10:02:42;2.15;;;1.60;;
25009;SDS011;13026;49.486;10.926;2022-07-11T10:05:08;2.88;;;1.50;;
25009;SDS011;13026;49.486;10.926;2022-07-11T10:07:34;1.50;;;1.30;;
25009;SDS011;13026;49.486;10.926;2022-07-11T10:10:01;3.15;;;1.90;;
25009;SDS011;13026;49.486;10.926;2022-07-11T10:12:28;1.98;;;1.70;;
25009;SDS011;13026;49.486;10.926;2022-07-11T10:14:54;4.60;;;1.50;;
25009;SDS011;13026;49.486;10.926;2022-07-11T10:20:10;1.40;;;1.30;;
25009;SDS011;13026;49.486;10.926;2022-07-11T10:25:35;1.17;;;0.90;;
25009;SDS011;13026;49.486;10.926;2022-07-11T10:30:51;1.10;;;0.90;;
25009;SDS011;13026;49.486;10.926;2022-07-11T10:33:18;0.85;;;0.85;;
25009;SDS011;13026;49.486;10.926;2022-07-11T10:35:45;0.90;;;0.90;;
25009;SDS011;13026;49.486;10.926;2022-07-11T10:38:12;0.73;;;0.73;;
25009;SDS011;13026;49.486;10.926;2022-07-11T10:40:45;0.68;;;0.68;;
25009;SDS011;13026;49.486;10.926;2022-07-11T10:48:23;1.77;;;0.70;;
25009;SDS011;13026;49.486;10.926;2022-07-11T10:53:49;0.80;;;0.80;;
25009;SDS011;13026;49.486;10.926;2022-07-11T10:56:20;3.00;;;0.80;;
25009;SDS011;13026;49.486;10.926;2022-07-11T11:09:58;2.97;;;1.10;;
25009;SDS011;13026;49.486;10.926;2022-07-11T11:23:25;0.70;;;0.70;;
25009;SDS011;13026;49.486;10.926;2022-07-11T11:26:17;1.75;;;0.88;;
25009;SDS011;13026;49.486;10.926;2022-07-11T11:28:56;0.95;;;0.80;;
25009;SDS011;13026;49.486;10.926;2022-07-11T11:31:23;2.97;;;0.75;;
25009;SDS011;13026;49.486;10.926;2022-07-11T11:33:50;1.95;;;0.77;;
25009;SDS011;13026;49.486;10.926;2022-07-11T11:36:16;0.88;;;0.70;;
25009;SDS011;13026;49.486;10.926;2022-07-11T11:38:44;0.63;;;0.63;;
25009;SDS011;13026;49.486;10.926;2022-07-11T11:41:12;0.80;;;0.80;;
25009;SDS011;13026;49.486;10.926;2022-07-11T11:43:41;1.13;;;0.60;;
25009;SDS011;13026;49.486;10.926;2022-07-11T11:46:09;0.80;;;0.80;;
25009;SDS011;13026;49.486;10.926;2022-07-11T11:48:37;0.82;;;0.82;;
25009;SDS011;13026;49.486;10.926;2022-07-11T11:51:04;1.05;;;0.90;;
25009;SDS011;13026;49.486;10.926;2022-07-11T11:53:38;1.55;;;0.80;;
25009;SDS011;13026;49.486;10.926;2022-07-11T11:58:48;0.80;;;0.80;;
25009;SDS011;13026;49.486;10.926;2022-07-11T12:01:15;0.93;;;0.80;;
25009;SDS011;13026;49.486;10.926;2022-07-11T12:03:46;0.95;;;0.95;;
25009;SDS011;13026;49.486;10.926;2022-07-11T12:06:23;0.80;;;0.80;;
25009;SDS011;13026;49.486;10.926;2022-07-11T12:09:01;2.47;;;0.70;;
25009;SDS011;13026;49.486;10.926;2022-07-11T12:11:27;0.90;;;0.90;;
25009;SDS011;13026;49.486;10.926;2022-07-11T12:13:56;0.70;;;0.70;;
25009;SDS011;13026;49.486;10.926;2022-07-11T12:16:23;2.95;;;0.80;;
25009;SDS011;13026;49.486;10.926;2022-07-11T12:18:52;0.90;;;0.90;;
25009;SDS011;13026;49.486;10.926;2022-07-11T12:21:17;0.70;;;0.70;;
25009;SDS011;13026;49.486;10.926;2022-07-11T12:23:43;0.90;;;0.85;;
25009;SDS011;13026;49.486;10.926;2022-07-11T12:26:08;1.05;;;0.70;;
25009;SDS011;13026;49.486;10.926;2022-07-11T12:28:34;2.47;;;0.82;;
25009;SDS011;13026;49.486;10.926;2022-07-11T12:31:00;0.90;;;0.90;;
25009;SDS011;13026;49.486;10.926;2022-07-11T12:33:27;0.70;;;0.70;;
25009;SDS011;13026;49.486;10.926;2022-07-11T12:35:59;0.80;;;0.80;;
25009;SDS011;13026;49.486;10.926;2022-07-11T12:41:11;0.80;;;0.80;;
25009;SDS011;13026;49.486;10.926;2022-07-11T12:43:39;0.70;;;0.70;;
25009;SDS011;13026;49.486;10.926;2022-07-11T12:46:04;2.58;;;1.00;;
25009;SDS011;13026;49.486;10.926;2022-07-11T12:48:39;1.00;;;1.00;;
25009;SDS011;13026;49.486;10.926;2022-07-11T12:51:04;2.15;;;0.90;;
25009;SDS011;13026;49.486;10.926;2022-07-11T12:53:30;0.68;;;0.68;;
25009;SDS011;13026;49.486;10.926;2022-07-11T12:55:55;4.57;;;0.95;;
25009;SDS011;13026;49.486;10.926;2022-07-11T12:58:21;1.00;;;1.00;;
25009;SDS011;13026;49.486;10.926;2022-07-11T13:00:57;1.83;;;1.00;;
25009;SDS011;13026;49.486;10.926;2022-07-11T13:03:30;1.10;;;0.90;;
25009;SDS011;13026;49.486;10.926;2022-07-11T13:05:57;3.28;;;0.70;;
25009;SDS011;13026;49.486;10.926;2022-07-11T13:10:52;1.48;;;1.27;;
25009;SDS011;13026;49.486;10.926;2022-07-11T13:13:19;1.30;;;1.20;;
25009;SDS011;13026;49.486;10.926;2022-07-11T13:15:45;0.90;;;0.90;;
25009;SDS011;13026;49.486;10.926;2022-07-11T13:18:11;1.15;;;1.02;;
25009;SDS011;13026;49.486;10.926;2022-07-11T13:20:36;0.98;;;0.90;;
25009;SDS011;13026;49.486;10.926;2022-07-11T13:23:02;1.02;;;1.02;;
25009;SDS011;13026;49.486;10.926;2022-07-11T13:25:28;2.67;;;0.90;;
25009;SDS011;13026;49.486;10.926;2022-07-11T13:27:54;1.02;;;0.93;;
25009;SDS011;13026;49.486;10.926;2022-07-11T13:30:20;1.02;;;1.00;;
25009;SDS011;13026;49.486;10.926;2022-07-11T13:32:48;1.23;;;1.10;;
25009;SDS011;13026;49.486;10.926;2022-07-11T13:35:15;1.15;;;1.05;;
25009;SDS011;13026;49.486;10.926;2022-07-11T13:37:42;0.95;;;0.95;;
25009;SDS011;13026;49.486;10.926;2022-07-11T13:40:10;2.13;;;1.10;;
25009;SDS011;13026;49.486;10.926;2022-07-11T13:42:37;1.00;;;1.00;;
25009;SDS011;13026;49.486;10.926;2022-07-11T13:45:04;0.90;;;0.90;;
25009;SDS011;13026;49.486;10.926;2022-07-11T13:47:31;0.90;;;0.90;;
25009;SDS011;13026;49.486;10.926;2022-07-11T13:49:57;0.90;;;0.90;;
25009;SDS011;13026;49.486;10.926;2022-07-11T13:52:22;1.58;;;0.82;;
25009;SDS011;13026;49.486;10.926;2022-07-11T13:54:48;1.10;;;1.10;;
25009;SDS011;13026;49.486;10.926;2022-07-11T13:57:13;1.48;;;1.13;;
25009;SDS011;13026;49.486;10.926;2022-07-11T13:59:39;1.27;;;1.02;;
25009;SDS011;13026;49.486;10.926;2022-07-11T14:02:04;0.75;;;0.75;;
25009;SDS011;13026;49.486;10.926;2022-07-11T14:04:30;1.40;;;0.98;;
25009;SDS011;13026;49.486;10.926;2022-07-11T14:06:56;0.90;;;0.90;;
25009;SDS011;13026;49.486;10.926;2022-07-11T14:09:22;0.85;;;0.85;;
25009;SDS011;13026;49.486;10.926;2022-07-11T14:11:47;0.93;;;0.88;;
25009;SDS011;13026;49.486;10.926;2022-07-11T14:14:13;0.80;;;0.80;;
25009;SDS011;13026;49.486;10.926;2022-07-11T14:16:39;0.70;;;0.70;;
25009;SDS011;13026;49.486;10.926;2022-07-11T14:19:04;0.50;;;0.50;;
25009;SDS011;13026;49.486;10.926;2022-07-11T14:21:30;1.20;;;1.10;;
25009;SDS011;13026;49.486;10.926;2022-07-11T14:23:56;1.70;;;0.70;;
25009;SDS011;13026;49.486;10.926;2022-07-11T14:26:22;0.80;;;0.80;;
25009;SDS011;13026;49.486;10.926;2022-07-11T14:28:47;0.70;;;0.70;;
25009;SDS011;13026;49.486;10.926;2022-07-11T14:31:15;0.82;;;0.70;;
25009;SDS011;13026;49.486;10.926;2022-07-11T14:33:41;0.73;;;0.73;;
25009;SDS011;13026;49.486;10.926;2022-07-11T14:36:06;2.88;;;0.80;;
25009;SDS011;13026;49.486;10.926;2022-07-11T14:38:32;0.77;;;0.70;;
25009;SDS011;13026;49.486;10.926;2022-07-11T14:40:58;3.47;;;1.25;;
25009;SDS011;13026;49.486;10.926;2022-07-11T14:43:24;1.00;;;0.90;;
25009;SDS011;13026;49.486;10.926;2022-07-11T14:45:51;0.70;;;0.70;;
25009;SDS011;13026;49.486;10.926;2022-07-11T14:48:16;1.38;;;0.73;;
25009;SDS011;13026;49.486;10.926;2022-07-11T14:50:42;0.70;;;0.70;;
25009;SDS011;13026;49.486;10.926;2022-07-11T14:53:07;0.90;;;0.90;;
25009;SDS011;13026;49.486;10.926;2022-07-11T14:55:33;3.13;;;0.65;;
25009;SDS011;13026;49.486;10.926;2022-07-11T14:57:58;0.60;;;0.60;;
25009;SDS011;13026;49.486;10.926;2022-07-11T15:00:24;0.75;;;0.75;;
25009;SDS011;13026;49.486;10.926;2022-07-11T15:02:49;0.60;;;0.60;;
25009;SDS011;13026;49.486;10.926;2022-07-11T15:05:15;0.60;;;0.60;;
25009;SDS011;13026;49.486;10.926;2022-07-11T15:07:41;0.60;;;0.60;;
25009;SDS011;13026;49.486;10.926;2022-07-11T15:10:06;0.60;;;0.60;;
25009;SDS011;13026;49.486;10.926;2022-07-11T15:12:32;0.70;;;0.70;;
25009;SDS011;13026;49.486;10.926;2022-07-11T15:14:57;0.90;;;0.90;;
25009;SDS011;13026;49.486;10.926;2022-07-11T15:17:23;0.60;;;0.60;;
25009;SDS011;13026;49.486;10.926;2022-07-11T15:19:48;0.60;;;0.60;;
25009;SDS011;13026;49.486;10.926;2022-07-11T15:22:14;0.60;;;0.60;;
25009;SDS011;13026;49.486;10.926;2022-07-11T15:24:40;0.82;;;0.68;;